sensor_id;sensor_type;location;lat;lon;timestamp;temperature;humidity
13458;DHT22;6801;53.018;11.560;2022-07-29T00:01:59;19.00;45.20
13458;DHT22;6801;53.018;11.560;2022-07-29T00:04:26;18.90;45.30
13458;DHT22;6801;53.018;11.560;2022-07-29T00:06:53;18.90;44.90
13458;DHT22;6801;53.018;11.560;2022-07-29T00:09:19;18.80;45.00
13458;DHT22;6801;53.018;11.560;2022-07-29T00:11:47;18.80;45.00
13458;DHT22;6801;53.018;11.560;2022-07-29T00:14:14;18.80;45.40
13458;DHT22;6801;53.018;11.560;2022-07-29T00:16:42;18.80;45.50
13458;DHT22;6801;53.018;11.560;2022-07-29T00:19:09;18.70;45.60
13458;DHT22;6801;53.018;11.560;2022-07-29T00:21:36;18.70;45.70
13458;DHT22;6801;53.018;11.560;2022-07-29T00:24:03;18.70;45.70
13458;DHT22;6801;53.018;11.560;2022-07-29T00:26:30;18.60;45.80
13458;DHT22;6801;53.018;11.560;2022-07-29T00:28:58;18.60;45.50
13458;DHT22;6801;53.018;11.560;2022-07-29T00:31:25;18.60;46.20
13458;DHT22;6801;53.018;11.560;2022-07-29T00:33:54;18.50;46.30
13458;DHT22;6801;53.018;11.560;2022-07-29T00:36:21;18.50;46.00
13458;DHT22;6801;53.018;11.560;2022-07-29T00:38:47;18.50;46.00
13458;DHT22;6801;53.018;11.560;2022-07-29T00:41:14;18.50;45.80
13458;DHT22;6801;53.018;11.560;2022-07-29T00:43:41;18.50;46.10
13458;DHT22;6801;53.018;11.560;2022-07-29T00:46:09;18.40;46.40
13458;DHT22;6801;53.018;11.560;2022-07-29T00:48:36;18.40;46.50
13458;DHT22;6801;53.018;11.560;2022-07-29T00:51:06;18.30;46.30
13458;DHT22;6801;53.018;11.560;2022-07-29T00:53:36;18.30;46.30
13458;DHT22;6801;53.018;11.560;2022-07-29T00:56:04;18.30;46.10
13458;DHT22;6801;53.018;11.560;2022-07-29T00:58:31;18.20;46.20
13458;DHT22;6801;53.018;11.560;2022-07-29T01:00:58;18.20;46.30
13458;DHT22;6801;53.018;11.560;2022-07-29T01:03:25;18.20;46.30
13458;DHT22;6801;53.018;11.560;2022-07-29T01:05:53;18.20;46.40
13458;DHT22;6801;53.018;11.560;2022-07-29T01:08:23;18.10;47.10
13458;DHT22;6801;53.018;11.560;2022-07-29T01:10:51;18.10;47.50
13458;DHT22;6801;53.018;11.560;2022-07-29T01:13:19;18.00;46.90
13458;DHT22;6801;53.018;11.560;2022-07-29T01:16:04;18.00;46.70
13458;DHT22;6801;53.018;11.560;2022-07-29T01:18:35;18.00;47.20
13458;DHT22;6801;53.018;11.560;2022-07-29T01:21:36;18.00;47.20
13458;DHT22;6801;53.018;11.560;2022-07-29T01:24:39;18.00;47.50
13458;DHT22;6801;53.018;11.560;2022-07-29T01:27:26;17.90;47.60
13458;DHT22;6801;53.018;11.560;2022-07-29T01:29:59;17.90;48.00
13458;DHT22;6801;53.018;11.560;2022-07-29T01:32:33;17.90;48.50
13458;DHT22;6801;53.018;11.560;2022-07-29T01:35:04;17.80;48.80
13458;DHT22;6801;53.018;11.560;2022-07-29T01:37:37;17.80;48.60
13458;DHT22;6801;53.018;11.560;2022-07-29T01:40:11;17.70;49.10
13458;DHT22;6801;53.018;11.560;2022-07-29T01:42:42;17.70;49.20
13458;DHT22;6801;53.018;11.560;2022-07-29T01:45:15;17.60;49.20
13458;DHT22;6801;53.018;11.560;2022-07-29T01:47:46;17.60;48.80
13458;DHT22;6801;53.018;11.560;2022-07-29T01:50:19;17.60;49.10
13458;DHT22;6801;53.018;11.560;2022-07-29T01:52:52;17.60;49.70
13458;DHT22;6801;53.018;11.560;2022-07-29T01:55:26;17.50;49.60
13458;DHT22;6801;53.018;11.560;2022-07-29T01:57:56;17.50;49.20
13458;DHT22;6801;53.018;11.560;2022-07-29T02:00:26;17.50;49.20
13458;DHT22;6801;53.018;11.560;2022-07-29T02:02:54;17.50;49.30
13458;DHT22;6801;53.018;11.560;2022-07-29T02:05:23;17.50;49.00
13458;DHT22;6801;53.018;11.560;2022-07-29T02:07:54;17.50;49.10
13458;DHT22;6801;53.018;11.560;2022-07-29T02:10:26;17.50;49.30
13458;DHT22;6801;53.018;11.560;2022-07-29T02:12:55;17.50;49.40
13458;DHT22;6801;53.018;11.560;2022-07-29T02:15:27;17.50;50.30
13458;DHT22;6801;53.018;11.560;2022-07-29T02:17:58;17.50;50.40
13458;DHT22;6801;53.018;11.560;2022-07-29T02:20:28;17.40;50.70
13458;DHT22;6801;53.018;11.560;2022-07-29T02:22:55;17.50;50.90
13458;DHT22;6801;53.018;11.560;2022-07-29T02:25:24;17.40;50.20
13458;DHT22;6801;53.018;11.560;2022-07-29T02:27:52;17.40;50.40
13458;DHT22;6801;53.018;11.560;2022-07-29T02:30:21;17.40;50.40
13458;DHT22;6801;53.018;11.560;2022-07-29T02:32:51;17.30;50.40
13458;DHT22;6801;53.018;11.560;2022-07-29T02:35:19;17.40;50.50
13458;DHT22;6801;53.018;11.560;2022-07-29T02:37:47;17.30;50.70
13458;DHT22;6801;53.018;11.560;2022-07-29T02:40:38;17.30;50.70
13458;DHT22;6801;53.018;11.560;2022-07-29T02:43:06;17.20;50.80
13458;DHT22;6801;53.018;11.560;2022-07-29T02:45:34;17.20;50.70
13458;DHT22;6801;53.018;11.560;2022-07-29T02:48:06;17.20;50.50
13458;DHT22;6801;53.018;11.560;2022-07-29T02:50:39;17.30;51.10
13458;DHT22;6801;53.018;11.560;2022-07-29T02:53:14;17.20;51.20
13458;DHT22;6801;53.018;11.560;2022-07-29T02:55:45;17.20;51.90
13458;DHT22;6801;53.018;11.560;2022-07-29T02:58:15;17.20;52.10
13458;DHT22;6801;53.018;11.560;2022-07-29T03:00:48;17.20;51.50
13458;DHT22;6801;53.018;11.560;2022-07-29T03:03:18;17.20;52.20
13458;DHT22;6801;53.018;11.560;2022-07-29T03:05:45;17.10;52.50
13458;DHT22;6801;53.018;11.560;2022-07-29T03:08:12;17.20;52.20
13458;DHT22;6801;53.018;11.560;2022-07-29T03:10:43;17.10;52.20
13458;DHT22;6801;53.018;11.560;2022-07-29T03:13:11;17.10;52.60
13458;DHT22;6801;53.018;11.560;2022-07-29T03:15:39;17.10;52.50
13458;DHT22;6801;53.018;11.560;2022-07-29T03:18:06;17.10;52.40
13458;DHT22;6801;53.018;11.560;2022-07-29T03:20:36;17.00;52.00
13458;DHT22;6801;53.018;11.560;2022-07-29T03:23:03;17.00;52.70
13458;DHT22;6801;53.018;11.560;2022-07-29T03:25:30;17.00;52.10
13458;DHT22;6801;53.018;11.560;2022-07-29T03:27:57;17.00;51.80
13458;DHT22;6801;53.018;11.560;2022-07-29T03:30:24;17.10;51.80
13458;DHT22;6801;53.018;11.560;2022-07-29T03:32:52;17.10;51.80
13458;DHT22;6801;53.018;11.560;2022-07-29T03:35:19;17.00;51.80
13458;DHT22;6801;53.018;11.560;2022-07-29T03:37:47;17.00;51.70
13458;DHT22;6801;53.018;11.560;2022-07-29T03:40:18;17.10;51.70
13458;DHT22;6801;53.018;11.560;2022-07-29T03:42:47;17.10;51.60
13458;DHT22;6801;53.018;11.560;2022-07-29T03:45:18;17.00;51.80
13458;DHT22;6801;53.018;11.560;2022-07-29T03:47:48;17.10;51.80
13458;DHT22;6801;53.018;11.560;2022-07-29T03:50:18;17.10;51.60
13458;DHT22;6801;53.018;11.560;2022-07-29T03:52:49;17.00;52.00
13458;DHT22;6801;53.018;11.560;2022-07-29T03:55:16;17.00;51.90
13458;DHT22;6801;53.018;11.560;2022-07-29T03:57:44;17.00;51.90
13458;DHT22;6801;53.018;11.560;2022-07-29T04:00:12;17.00;51.90
13458;DHT22;6801;53.018;11.560;2022-07-29T04:02:41;17.00;52.00
13458;DHT22;6801;53.018;11.560;2022-07-29T04:05:12;17.00;51.90
13458;DHT22;6801;53.018;11.560;2022-07-29T04:07:38;17.00;51.80
13458;DHT22;6801;53.018;11.560;2022-07-29T04:10:07;17.00;51.90
13458;DHT22;6801;53.018;11.560;2022-07-29T04:12:35;17.00;51.90
13458;DHT22;6801;53.018;11.560;2022-07-29T04:15:02;17.00;52.00
13458;DHT22;6801;53.018;11.560;2022-07-29T04:17:29;17.00;52.00
13458;DHT22;6801;53.018;11.560;2022-07-29T04:19:56;17.00;52.00
13458;DHT22;6801;53.018;11.560;2022-07-29T04:22:22;17.00;52.10
13458;DHT22;6801;53.018;11.560;2022-07-29T04:24:49;17.00;52.30
13458;DHT22;6801;53.018;11.560;2022-07-29T04:27:18;17.00;52.50
13458;DHT22;6801;53.018;11.560;2022-07-29T04:29:45;17.00;52.50
13458;DHT22;6801;53.018;11.560;2022-07-29T04:32:12;17.00;52.40
13458;DHT22;6801;53.018;11.560;2022-07-29T04:34:38;17.00;52.60
13458;DHT22;6801;53.018;11.560;2022-07-29T04:37:05;17.00;53.30
13458;DHT22;6801;53.018;11.560;2022-07-29T04:39:32;17.00;53.10
13458;DHT22;6801;53.018;11.560;2022-07-29T04:41:59;17.00;52.90
13458;DHT22;6801;53.018;11.560;2022-07-29T04:44:28;17.00;52.80
13458;DHT22;6801;53.018;11.560;2022-07-29T04:46:56;17.00;53.30
13458;DHT22;6801;53.018;11.560;2022-07-29T04:49:23;17.00;53.00
13458;DHT22;6801;53.018;11.560;2022-07-29T04:51:50;17.00;52.80
13458;DHT22;6801;53.018;11.560;2022-07-29T04:54:17;17.00;52.80
13458;DHT22;6801;53.018;11.560;2022-07-29T04:56:44;17.00;53.10
13458;DHT22;6801;53.018;11.560;2022-07-29T04:59:12;17.00;53.00
13458;DHT22;6801;53.018;11.560;2022-07-29T05:01:40;17.00;52.90
13458;DHT22;6801;53.018;11.560;2022-07-29T05:04:07;17.00;52.90
13458;DHT22;6801;53.018;11.560;2022-07-29T05:06:34;17.00;52.90
13458;DHT22;6801;53.018;11.560;2022-07-29T05:09:01;17.00;52.90
13458;DHT22;6801;53.018;11.560;2022-07-29T05:11:27;17.00;52.90
13458;DHT22;6801;53.018;11.560;2022-07-29T05:13:54;17.10;53.20
13458;DHT22;6801;53.018;11.560;2022-07-29T05:16:21;17.10;53.30
13458;DHT22;6801;53.018;11.560;2022-07-29T05:18:50;17.20;53.30
13458;DHT22;6801;53.018;11.560;2022-07-29T05:21:16;17.20;53.90
13458;DHT22;6801;53.018;11.560;2022-07-29T05:23:43;17.30;54.60
13458;DHT22;6801;53.018;11.560;2022-07-29T05:26:10;17.30;55.00
13458;DHT22;6801;53.018;11.560;2022-07-29T05:28:37;17.30;54.40
13458;DHT22;6801;53.018;11.560;2022-07-29T05:31:04;17.30;54.30
13458;DHT22;6801;53.018;11.560;2022-07-29T05:33:31;17.30;54.60
13458;DHT22;6801;53.018;11.560;2022-07-29T05:35:59;17.40;55.00
13458;DHT22;6801;53.018;11.560;2022-07-29T05:38:26;17.40;54.70
13458;DHT22;6801;53.018;11.560;2022-07-29T05:40:56;17.40;54.10
13458;DHT22;6801;53.018;11.560;2022-07-29T05:43:23;17.40;54.00
13458;DHT22;6801;53.018;11.560;2022-07-29T05:45:50;17.50;53.90
13458;DHT22;6801;53.018;11.560;2022-07-29T05:48:17;17.40;53.60
13458;DHT22;6801;53.018;11.560;2022-07-29T05:50:44;17.50;53.60
13458;DHT22;6801;53.018;11.560;2022-07-29T05:53:15;17.50;53.40
13458;DHT22;6801;53.018;11.560;2022-07-29T05:55:42;17.50;53.30
13458;DHT22;6801;53.018;11.560;2022-07-29T05:58:09;17.50;54.20
13458;DHT22;6801;53.018;11.560;2022-07-29T06:00:35;17.50;54.80
13458;DHT22;6801;53.018;11.560;2022-07-29T06:03:02;17.50;54.50
13458;DHT22;6801;53.018;11.560;2022-07-29T06:05:29;17.50;54.30
13458;DHT22;6801;53.018;11.560;2022-07-29T06:07:56;17.50;53.90
13458;DHT22;6801;53.018;11.560;2022-07-29T06:10:25;17.60;53.60
13458;DHT22;6801;53.018;11.560;2022-07-29T06:12:52;17.50;54.10
13458;DHT22;6801;53.018;11.560;2022-07-29T06:15:19;17.60;53.90
13458;DHT22;6801;53.018;11.560;2022-07-29T06:17:46;17.60;54.30
13458;DHT22;6801;53.018;11.560;2022-07-29T06:20:13;17.60;54.40
13458;DHT22;6801;53.018;11.560;2022-07-29T06:22:40;17.70;55.20
13458;DHT22;6801;53.018;11.560;2022-07-29T06:25:07;17.70;56.00
13458;DHT22;6801;53.018;11.560;2022-07-29T06:27:36;17.70;55.90
13458;DHT22;6801;53.018;11.560;2022-07-29T06:30:03;17.70;55.10
13458;DHT22;6801;53.018;11.560;2022-07-29T06:32:32;17.70;54.80
13458;DHT22;6801;53.018;11.560;2022-07-29T06:34:59;17.80;55.90
13458;DHT22;6801;53.018;11.560;2022-07-29T06:37:26;17.80;55.60
13458;DHT22;6801;53.018;11.560;2022-07-29T06:39:53;17.90;56.60
13458;DHT22;6801;53.018;11.560;2022-07-29T06:42:35;18.00;55.70
13458;DHT22;6801;53.018;11.560;2022-07-29T06:45:02;18.00;55.00
13458;DHT22;6801;53.018;11.560;2022-07-29T06:47:29;18.00;55.30
13458;DHT22;6801;53.018;11.560;2022-07-29T06:49:57;18.00;55.00
13458;DHT22;6801;53.018;11.560;2022-07-29T06:52:23;18.10;55.30
13458;DHT22;6801;53.018;11.560;2022-07-29T06:54:51;18.20;55.40
13458;DHT22;6801;53.018;11.560;2022-07-29T06:57:18;18.20;54.90
13458;DHT22;6801;53.018;11.560;2022-07-29T06:59:47;18.30;54.70
13458;DHT22;6801;53.018;11.560;2022-07-29T07:02:14;18.40;54.80
13458;DHT22;6801;53.018;11.560;2022-07-29T07:04:41;18.60;54.60
13458;DHT22;6801;53.018;11.560;2022-07-29T07:07:08;18.70;54.10
13458;DHT22;6801;53.018;11.560;2022-07-29T07:09:35;18.80;54.00
13458;DHT22;6801;53.018;11.560;2022-07-29T07:12:02;18.90;54.20
13458;DHT22;6801;53.018;11.560;2022-07-29T07:14:29;19.00;54.00
13458;DHT22;6801;53.018;11.560;2022-07-29T07:16:57;19.10;53.80
13458;DHT22;6801;53.018;11.560;2022-07-29T07:19:25;19.20;54.00
13458;DHT22;6801;53.018;11.560;2022-07-29T07:21:52;19.20;53.60
13458;DHT22;6801;53.018;11.560;2022-07-29T07:24:19;19.40;54.50
13458;DHT22;6801;53.018;11.560;2022-07-29T07:26:46;19.50;53.70
13458;DHT22;6801;53.018;11.560;2022-07-29T07:29:13;19.50;53.40
13458;DHT22;6801;53.018;11.560;2022-07-29T07:31:40;19.70;52.90
13458;DHT22;6801;53.018;11.560;2022-07-29T07:34:09;19.70;53.20
13458;DHT22;6801;53.018;11.560;2022-07-29T07:36:36;19.90;53.10
13458;DHT22;6801;53.018;11.560;2022-07-29T07:39:03;20.00;53.00
13458;DHT22;6801;53.018;11.560;2022-07-29T07:41:31;20.00;52.40
13458;DHT22;6801;53.018;11.560;2022-07-29T07:43:57;20.10;52.40
13458;DHT22;6801;53.018;11.560;2022-07-29T07:46:24;20.10;52.50
13458;DHT22;6801;53.018;11.560;2022-07-29T07:48:51;20.10;52.30
13458;DHT22;6801;53.018;11.560;2022-07-29T07:51:20;20.20;52.30
13458;DHT22;6801;53.018;11.560;2022-07-29T07:53:47;20.20;52.30
13458;DHT22;6801;53.018;11.560;2022-07-29T07:56:15;20.20;52.20
13458;DHT22;6801;53.018;11.560;2022-07-29T07:58:42;20.30;52.20
13458;DHT22;6801;53.018;11.560;2022-07-29T08:01:10;20.30;51.70
13458;DHT22;6801;53.018;11.560;2022-07-29T08:03:37;20.40;51.90
13458;DHT22;6801;53.018;11.560;2022-07-29T08:06:05;20.50;51.60
13458;DHT22;6801;53.018;11.560;2022-07-29T08:08:33;20.50;51.80
13458;DHT22;6801;53.018;11.560;2022-07-29T08:11:01;20.60;51.60
13458;DHT22;6801;53.018;11.560;2022-07-29T08:13:29;20.60;51.60
13458;DHT22;6801;53.018;11.560;2022-07-29T08:15:58;20.60;51.60
13458;DHT22;6801;53.018;11.560;2022-07-29T08:18:28;20.70;51.50
13458;DHT22;6801;53.018;11.560;2022-07-29T08:20:56;20.70;51.50
13458;DHT22;6801;53.018;11.560;2022-07-29T08:23:23;20.70;51.40
13458;DHT22;6801;53.018;11.560;2022-07-29T08:25:54;20.80;51.50
13458;DHT22;6801;53.018;11.560;2022-07-29T08:28:21;20.90;51.40
13458;DHT22;6801;53.018;11.560;2022-07-29T08:30:48;20.90;50.80
13458;DHT22;6801;53.018;11.560;2022-07-29T08:33:15;21.00;50.90
13458;DHT22;6801;53.018;11.560;2022-07-29T08:35:44;21.10;50.70
13458;DHT22;6801;53.018;11.560;2022-07-29T08:38:11;21.10;50.60
13458;DHT22;6801;53.018;11.560;2022-07-29T08:40:39;21.30;50.50
13458;DHT22;6801;53.018;11.560;2022-07-29T08:43:08;21.40;50.20
13458;DHT22;6801;53.018;11.560;2022-07-29T08:45:42;21.40;50.40
13458;DHT22;6801;53.018;11.560;2022-07-29T08:48:11;21.50;50.10
13458;DHT22;6801;53.018;11.560;2022-07-29T08:50:39;21.60;49.80
13458;DHT22;6801;53.018;11.560;2022-07-29T08:53:09;21.70;49.80
13458;DHT22;6801;53.018;11.560;2022-07-29T08:55:39;21.90;49.40
13458;DHT22;6801;53.018;11.560;2022-07-29T08:58:08;22.00;49.50
13458;DHT22;6801;53.018;11.560;2022-07-29T09:00:37;22.10;49.30
13458;DHT22;6801;53.018;11.560;2022-07-29T09:03:08;22.20;49.10
13458;DHT22;6801;53.018;11.560;2022-07-29T09:05:36;22.40;48.70
13458;DHT22;6801;53.018;11.560;2022-07-29T09:08:04;22.50;48.60
13458;DHT22;6801;53.018;11.560;2022-07-29T09:10:31;22.60;48.20
13458;DHT22;6801;53.018;11.560;2022-07-29T09:12:58;22.60;48.30
13458;DHT22;6801;53.018;11.560;2022-07-29T09:15:27;22.70;48.20
13458;DHT22;6801;53.018;11.560;2022-07-29T09:17:54;22.90;48.10
13458;DHT22;6801;53.018;11.560;2022-07-29T09:20:24;23.10;47.50
13458;DHT22;6801;53.018;11.560;2022-07-29T09:22:51;23.20;47.20
13458;DHT22;6801;53.018;11.560;2022-07-29T09:25:32;23.30;47.00
13458;DHT22;6801;53.018;11.560;2022-07-29T09:28:06;23.40;46.60
13458;DHT22;6801;53.018;11.560;2022-07-29T09:30:35;23.50;46.30
13458;DHT22;6801;53.018;11.560;2022-07-29T09:33:03;23.70;45.90
13458;DHT22;6801;53.018;11.560;2022-07-29T09:35:31;23.80;45.70
13458;DHT22;6801;53.018;11.560;2022-07-29T09:38:10;23.90;45.30
13458;DHT22;6801;53.018;11.560;2022-07-29T09:40:37;24.00;44.90
13458;DHT22;6801;53.018;11.560;2022-07-29T09:43:10;24.10;44.80
13458;DHT22;6801;53.018;11.560;2022-07-29T09:45:39;24.30;44.30
13458;DHT22;6801;53.018;11.560;2022-07-29T09:48:14;24.50;43.40
13458;DHT22;6801;53.018;11.560;2022-07-29T09:50:44;24.50;43.40
13458;DHT22;6801;53.018;11.560;2022-07-29T09:53:12;24.60;43.10
13458;DHT22;6801;53.018;11.560;2022-07-29T09:55:55;24.80;42.50
13458;DHT22;6801;53.018;11.560;2022-07-29T09:58:22;24.80;42.30
13458;DHT22;6801;53.018;11.560;2022-07-29T10:00:51;25.00;42.30
13458;DHT22;6801;53.018;11.560;2022-07-29T10:03:19;25.10;41.40
13458;DHT22;6801;53.018;11.560;2022-07-29T10:05:47;25.20;41.40
13458;DHT22;6801;53.018;11.560;2022-07-29T10:08:29;25.20;41.00
13458;DHT22;6801;53.018;11.560;2022-07-29T10:11:09;25.40;40.60
13458;DHT22;6801;53.018;11.560;2022-07-29T10:13:36;25.30;40.90
13458;DHT22;6801;53.018;11.560;2022-07-29T10:16:04;25.40;41.20
13458;DHT22;6801;53.018;11.560;2022-07-29T10:18:32;25.40;41.30
13458;DHT22;6801;53.018;11.560;2022-07-29T10:21:00;25.40;40.90
13458;DHT22;6801;53.018;11.560;2022-07-29T10:23:28;25.50;40.80
13458;DHT22;6801;53.018;11.560;2022-07-29T10:25:56;25.70;40.50
13458;DHT22;6801;53.018;11.560;2022-07-29T10:28:23;25.80;40.40
13458;DHT22;6801;53.018;11.560;2022-07-29T10:30:51;25.90;40.30
13458;DHT22;6801;53.018;11.560;2022-07-29T10:33:39;26.00;40.10
13458;DHT22;6801;53.018;11.560;2022-07-29T10:36:19;26.10;39.40
13458;DHT22;6801;53.018;11.560;2022-07-29T10:38:53;26.30;38.60
13458;DHT22;6801;53.018;11.560;2022-07-29T10:41:43;26.40;38.60
13458;DHT22;6801;53.018;11.560;2022-07-29T10:44:17;26.50;38.40
13458;DHT22;6801;53.018;11.560;2022-07-29T10:46:45;26.60;38.60
13458;DHT22;6801;53.018;11.560;2022-07-29T10:49:15;26.70;38.50
13458;DHT22;6801;53.018;11.560;2022-07-29T10:52:00;26.90;37.60
13458;DHT22;6801;53.018;11.560;2022-07-29T10:54:44;27.00;37.30
13458;DHT22;6801;53.018;11.560;2022-07-29T10:57:24;27.20;36.90
13458;DHT22;6801;53.018;11.560;2022-07-29T11:00:30;27.30;36.10
13458;DHT22;6801;53.018;11.560;2022-07-29T11:02:58;27.40;36.10
13458;DHT22;6801;53.018;11.560;2022-07-29T11:05:27;27.60;36.20
13458;DHT22;6801;53.018;11.560;2022-07-29T11:08:23;27.80;35.00
13458;DHT22;6801;53.018;11.560;2022-07-29T11:10:53;28.00;35.30
13458;DHT22;6801;53.018;11.560;2022-07-29T11:13:45;28.00;35.20
13458;DHT22;6801;53.018;11.560;2022-07-29T11:16:13;28.10;34.50
13458;DHT22;6801;53.018;11.560;2022-07-29T11:21:45;28.30;34.30
13458;DHT22;6801;53.018;11.560;2022-07-29T11:24:14;28.40;34.00
13458;DHT22;6801;53.018;11.560;2022-07-29T11:26:41;28.60;33.60
13458;DHT22;6801;53.018;11.560;2022-07-29T11:29:16;28.70;33.40
13458;DHT22;6801;53.018;11.560;2022-07-29T11:31:46;28.70;33.70
13458;DHT22;6801;53.018;11.560;2022-07-29T11:34:18;28.70;33.90
13458;DHT22;6801;53.018;11.560;2022-07-29T11:37:15;28.70;33.40
13458;DHT22;6801;53.018;11.560;2022-07-29T11:39:44;28.90;33.10
13458;DHT22;6801;53.018;11.560;2022-07-29T11:42:44;28.90;33.20
13458;DHT22;6801;53.018;11.560;2022-07-29T11:45:13;29.00;32.50
13458;DHT22;6801;53.018;11.560;2022-07-29T11:47:50;29.10;31.80
13458;DHT22;6801;53.018;11.560;2022-07-29T11:50:28;29.20;31.40
13458;DHT22;6801;53.018;11.560;2022-07-29T11:52:57;29.30;31.40
13458;DHT22;6801;53.018;11.560;2022-07-29T11:55:25;29.50;31.60
13458;DHT22;6801;53.018;11.560;2022-07-29T11:57:55;29.50;31.40
13458;DHT22;6801;53.018;11.560;2022-07-29T12:00:28;29.70;30.70
13458;DHT22;6801;53.018;11.560;2022-07-29T12:02:57;29.70;30.30
13458;DHT22;6801;53.018;11.560;2022-07-29T12:05:38;29.70;30.30
13458;DHT22;6801;53.018;11.560;2022-07-29T12:08:10;29.80;30.10
13458;DHT22;6801;53.018;11.560;2022-07-29T12:10:37;29.80;28.90
13458;DHT22;6801;53.018;11.560;2022-07-29T12:13:04;29.90;29.30
13458;DHT22;6801;53.018;11.560;2022-07-29T12:15:31;29.90;28.10
13458;DHT22;6801;53.018;11.560;2022-07-29T12:17:58;30.00;28.60
13458;DHT22;6801;53.018;11.560;2022-07-29T12:20:35;30.00;28.90
13458;DHT22;6801;53.018;11.560;2022-07-29T12:23:06;30.00;28.80
13458;DHT22;6801;53.018;11.560;2022-07-29T12:25:35;30.10;28.80
13458;DHT22;6801;53.018;11.560;2022-07-29T12:28:03;30.10;29.00
13458;DHT22;6801;53.018;11.560;2022-07-29T12:30:42;30.30;29.30
13458;DHT22;6801;53.018;11.560;2022-07-29T12:33:10;30.20;28.60
13458;DHT22;6801;53.018;11.560;2022-07-29T12:35:38;30.20;29.40
13458;DHT22;6801;53.018;11.560;2022-07-29T12:38:05;30.20;29.00
13458;DHT22;6801;53.018;11.560;2022-07-29T12:40:33;30.10;28.90
13458;DHT22;6801;53.018;11.560;2022-07-29T12:43:20;30.10;28.70
13458;DHT22;6801;53.018;11.560;2022-07-29T12:45:48;30.10;28.40
13458;DHT22;6801;53.018;11.560;2022-07-29T12:48:17;30.10;28.80
13458;DHT22;6801;53.018;11.560;2022-07-29T12:50:55;30.20;29.00
13458;DHT22;6801;53.018;11.560;2022-07-29T12:53:23;30.20;29.00
13458;DHT22;6801;53.018;11.560;2022-07-29T12:55:52;30.30;29.70
13458;DHT22;6801;53.018;11.560;2022-07-29T12:58:28;30.30;28.80
13458;DHT22;6801;53.018;11.560;2022-07-29T13:01:04;30.40;28.50
13458;DHT22;6801;53.018;11.560;2022-07-29T13:03:43;30.20;28.80
13458;DHT22;6801;53.018;11.560;2022-07-29T13:06:28;30.20;28.80
13458;DHT22;6801;53.018;11.560;2022-07-29T13:09:00;30.40;29.50
13458;DHT22;6801;53.018;11.560;2022-07-29T13:11:31;30.40;29.20
13458;DHT22;6801;53.018;11.560;2022-07-29T13:13:59;30.40;29.10
13458;DHT22;6801;53.018;11.560;2022-07-29T13:16:26;30.50;28.70
13458;DHT22;6801;53.018;11.560;2022-07-29T13:19:10;30.50;28.80
13458;DHT22;6801;53.018;11.560;2022-07-29T13:21:38;30.60;28.90
13458;DHT22;6801;53.018;11.560;2022-07-29T13:24:06;30.60;28.60
13458;DHT22;6801;53.018;11.560;2022-07-29T13:26:34;30.70;28.70
13458;DHT22;6801;53.018;11.560;2022-07-29T13:29:02;30.70;28.40
13458;DHT22;6801;53.018;11.560;2022-07-29T13:31:29;30.70;28.70
13458;DHT22;6801;53.018;11.560;2022-07-29T13:33:56;30.70;28.80
13458;DHT22;6801;53.018;11.560;2022-07-29T13:36:24;30.70;28.50
13458;DHT22;6801;53.018;11.560;2022-07-29T13:38:52;30.80;28.00
13458;DHT22;6801;53.018;11.560;2022-07-29T13:41:19;30.90;28.60
13458;DHT22;6801;53.018;11.560;2022-07-29T13:43:46;31.00;28.10
13458;DHT22;6801;53.018;11.560;2022-07-29T13:46:14;31.00;28.20
13458;DHT22;6801;53.018;11.560;2022-07-29T13:48:41;31.00;28.20
13458;DHT22;6801;53.018;11.560;2022-07-29T13:51:08;31.00;28.60
13458;DHT22;6801;53.018;11.560;2022-07-29T13:53:35;31.00;28.50
13458;DHT22;6801;53.018;11.560;2022-07-29T13:56:03;31.00;28.40
13458;DHT22;6801;53.018;11.560;2022-07-29T13:58:31;31.10;28.20
13458;DHT22;6801;53.018;11.560;2022-07-29T14:00:59;31.30;28.80
13458;DHT22;6801;53.018;11.560;2022-07-29T14:03:28;31.40;27.90
13458;DHT22;6801;53.018;11.560;2022-07-29T14:05:55;31.40;27.60
13458;DHT22;6801;53.018;11.560;2022-07-29T14:08:25;31.40;27.80
13458;DHT22;6801;53.018;11.560;2022-07-29T14:10:52;31.40;27.60
13458;DHT22;6801;53.018;11.560;2022-07-29T14:13:19;31.40;27.70
13458;DHT22;6801;53.018;11.560;2022-07-29T14:15:46;31.40;27.90
13458;DHT22;6801;53.018;11.560;2022-07-29T14:18:13;31.40;27.40
13458;DHT22;6801;53.018;11.560;2022-07-29T14:20:41;31.40;27.20
13458;DHT22;6801;53.018;11.560;2022-07-29T14:23:08;31.40;27.90
13458;DHT22;6801;53.018;11.560;2022-07-29T14:25:35;31.30;28.10
13458;DHT22;6801;53.018;11.560;2022-07-29T14:28:02;31.20;28.20
13458;DHT22;6801;53.018;11.560;2022-07-29T14:30:29;31.30;28.20
13458;DHT22;6801;53.018;11.560;2022-07-29T14:32:56;31.20;28.30
13458;DHT22;6801;53.018;11.560;2022-07-29T14:35:23;31.30;28.10
13458;DHT22;6801;53.018;11.560;2022-07-29T14:37:51;31.30;28.30
13458;DHT22;6801;53.018;11.560;2022-07-29T14:40:18;31.30;28.50
13458;DHT22;6801;53.018;11.560;2022-07-29T14:42:45;31.40;28.30
13458;DHT22;6801;53.018;11.560;2022-07-29T14:45:12;31.40;28.30
13458;DHT22;6801;53.018;11.560;2022-07-29T14:47:40;31.50;28.20
13458;DHT22;6801;53.018;11.560;2022-07-29T14:50:07;31.50;27.70
13458;DHT22;6801;53.018;11.560;2022-07-29T14:52:35;31.50;27.50
13458;DHT22;6801;53.018;11.560;2022-07-29T14:55:04;31.60;27.50
13458;DHT22;6801;53.018;11.560;2022-07-29T14:57:31;31.60;27.70
13458;DHT22;6801;53.018;11.560;2022-07-29T14:59:58;31.70;27.60
13458;DHT22;6801;53.018;11.560;2022-07-29T15:02:25;31.70;27.40
13458;DHT22;6801;53.018;11.560;2022-07-29T15:04:53;31.80;27.40
13458;DHT22;6801;53.018;11.560;2022-07-29T15:07:22;31.80;27.10
13458;DHT22;6801;53.018;11.560;2022-07-29T15:09:48;31.80;27.40
13458;DHT22;6801;53.018;11.560;2022-07-29T15:12:17;31.90;26.60
13458;DHT22;6801;53.018;11.560;2022-07-29T15:14:44;31.80;26.50
13458;DHT22;6801;53.018;11.560;2022-07-29T15:17:12;31.80;26.90
13458;DHT22;6801;53.018;11.560;2022-07-29T15:19:39;31.80;26.90
13458;DHT22;6801;53.018;11.560;2022-07-29T15:22:06;31.90;26.80
13458;DHT22;6801;53.018;11.560;2022-07-29T15:24:33;31.90;26.80
13458;DHT22;6801;53.018;11.560;2022-07-29T15:27:00;31.90;26.50
13458;DHT22;6801;53.018;11.560;2022-07-29T15:29:28;31.90;26.50
13458;DHT22;6801;53.018;11.560;2022-07-29T15:31:55;31.90;26.40
13458;DHT22;6801;53.018;11.560;2022-07-29T15:34:22;32.00;26.20
13458;DHT22;6801;53.018;11.560;2022-07-29T15:36:50;32.00;26.20
13458;DHT22;6801;53.018;11.560;2022-07-29T15:39:17;32.00;26.10
13458;DHT22;6801;53.018;11.560;2022-07-29T15:41:44;31.90;26.10
13458;DHT22;6801;53.018;11.560;2022-07-29T15:44:11;31.90;26.40
13458;DHT22;6801;53.018;11.560;2022-07-29T15:46:39;31.90;26.00
13458;DHT22;6801;53.018;11.560;2022-07-29T15:49:24;31.90;25.80